createdAt,value
2024-03-02T00:00:51.033Z,74.33
2024-03-02T00:03:18.070Z,73.72
2024-03-02T00:05:44.999Z,74.33
2024-03-02T00:08:11.573Z,73.85
2024-03-02T00:10:42.361Z,74.52
2024-03-02T00:13:09.687Z,74.11
2024-03-02T00:15:45.351Z,74.19
2024-03-02T00:18:14.011Z,73.96
2024-03-02T00:20:41.989Z,73.63
2024-03-02T00:23:10.459Z,73.78
2024-03-02T00:25:45.002Z,73.81
2024-03-02T00:28:23.487Z,73.89
2024-03-02T00:30:58.361Z,73.87
2024-03-02T00:33:29.038Z,74.00
2024-03-02T00:35:55.950Z,74.12
2024-03-02T00:38:23.599Z,74.50
2024-03-02T00:40:50.312Z,74.78
2024-03-02T00:43:44.181Z,75.26
2024-03-02T00:46:20.566Z,75.63
2024-03-02T00:48:53.160Z,75.69
2024-03-02T00:51:19.800Z,75.73
2024-03-02T00:53:46.713Z,75.71
2024-03-02T00:56:13.469Z,75.31
2024-03-02T00:58:40.908Z,75.32
2024-03-02T01:01:08.834Z,74.97
2024-03-02T01:03:35.709Z,74.56
2024-03-02T01:06:02.484Z,73.86
2024-03-02T01:08:29.128Z,73.56
2024-03-02T01:10:56.012Z,73.44
2024-03-02T01:13:24.414Z,73.21
2024-03-02T01:15:51.714Z,73.08
2024-03-02T01:18:18.799Z,73.17
2024-03-02T01:20:45.496Z,72.61
2024-03-02T01:23:12.414Z,72.44
2024-03-02T01:25:39.070Z,72.16
2024-03-02T01:28:06.357Z,71.77
2024-03-02T01:30:33.085Z,72.12
2024-03-02T01:33:01.483Z,71.61
2024-03-02T01:35:28.135Z,71.12
2024-03-02T01:37:55.279Z,70.89
2024-03-02T01:40:21.952Z,70.77
2024-03-02T01:42:48.682Z,71.20
2024-03-02T01:45:15.424Z,71.44
2024-03-02T01:47:42.089Z,71.39
2024-03-02T01:50:09.574Z,72.48
2024-03-02T01:52:36.154Z,72.02
2024-03-02T01:55:02.808Z,72.25
2024-03-02T01:57:29.414Z,72.79
2024-03-02T01:59:56.526Z,72.68
2024-03-02T02:02:23.261Z,73.24
2024-03-02T02:04:49.810Z,73.29
2024-03-02T02:07:16.451Z,73.82
2024-03-02T02:09:43.631Z,73.83
2024-03-02T02:12:13.457Z,73.65
2024-03-02T02:14:41.171Z,73.99
2024-03-02T02:17:08.032Z,74.23
2024-03-02T02:19:34.627Z,74.12
2024-03-02T02:22:01.270Z,74.11
2024-03-02T02:24:27.851Z,73.57
2024-03-02T02:26:54.455Z,74.20
2024-03-02T02:29:21.101Z,73.75
2024-03-02T02:31:47.675Z,74.02
2024-03-02T02:34:15.560Z,73.29
2024-03-02T02:36:42.825Z,72.95
2024-03-02T02:39:14.412Z,73.33
2024-03-02T02:41:41.134Z,73.14
2024-03-02T02:44:07.767Z,73.55
2024-03-02T02:46:34.434Z,72.44
2024-03-02T02:49:01.053Z,72.72
2024-03-02T02:51:27.797Z,72.23
2024-03-02T02:53:54.566Z,72.08
2024-03-02T02:56:21.194Z,72.29
2024-03-02T02:58:47.846Z,72.10
2024-03-02T03:01:14.601Z,71.93
2024-03-02T03:03:41.847Z,72.05
2024-03-02T03:06:08.421Z,72.43
2024-03-02T03:08:35.085Z,72.05
2024-03-02T03:11:01.936Z,72.29
2024-03-02T03:13:28.540Z,72.64
2024-03-02T03:15:55.288Z,72.85
2024-03-02T03:18:22.022Z,72.67
2024-03-02T03:20:48.738Z,72.67
2024-03-02T03:23:17.317Z,72.79
2024-03-02T03:25:44.532Z,72.86
2024-03-02T03:28:11.144Z,72.07
2024-03-02T03:30:40.955Z,72.41
2024-03-02T03:33:07.821Z,72.70
2024-03-02T03:35:34.653Z,72.70
2024-03-02T03:38:01.285Z,72.52
2024-03-02T03:40:27.904Z,72.95
2024-03-02T03:42:55.080Z,72.61
2024-03-02T03:45:22.239Z,72.94
2024-03-02T03:47:49.206Z,72.90
2024-03-02T03:50:15.973Z,72.91
2024-03-02T03:52:42.545Z,73.39
2024-03-02T03:55:09.610Z,73.23
2024-03-02T03:57:36.586Z,73.44
2024-03-02T04:00:04.741Z,73.91
2024-03-02T04:02:31.407Z,73.92
2024-03-02T04:04:57.922Z,73.83
2024-03-02T04:07:24.443Z,74.12
2024-03-02T04:09:51.130Z,72.96
2024-03-02T04:12:17.861Z,73.09
2024-03-02T04:14:44.581Z,73.44
2024-03-02T04:17:11.469Z,73.85
2024-03-02T04:19:38.060Z,73.75
2024-03-02T04:22:12.603Z,73.07
2024-03-02T04:24:45.300Z,73.83
2024-03-02T04:27:11.910Z,72.82
2024-03-02T04:29:38.435Z,73.84
2024-03-02T04:32:05.795Z,73.26
2024-03-02T04:34:32.351Z,73.00
2024-03-02T04:36:58.951Z,72.79
2024-03-02T04:39:26.154Z,73.46
2024-03-02T04:41:52.626Z,74.17
2024-03-02T04:44:19.222Z,73.88
2024-03-02T04:46:45.745Z,74.17
2024-03-02T04:49:12.505Z,73.92
2024-03-02T04:51:39.224Z,73.86
2024-03-02T04:54:05.890Z,73.68
2024-03-02T04:56:32.441Z,73.98
2024-03-02T04:58:59.008Z,74.04
2024-03-02T05:01:25.615Z,74.14
2024-03-02T05:03:52.362Z,74.07
2024-03-02T05:06:19.089Z,74.35
2024-03-02T05:08:46.167Z,74.63
2024-03-02T05:11:31.393Z,73.88
2024-03-02T05:13:57.988Z,74.71
2024-03-02T05:16:24.544Z,74.23
2024-03-02T05:18:51.358Z,74.51
2024-03-02T05:21:17.954Z,74.75
2024-03-02T05:23:45.280Z,74.33
2024-03-02T05:26:13.967Z,74.11
2024-03-02T05:28:40.663Z,74.27
2024-03-02T05:31:07.967Z,74.27
2024-03-02T05:33:34.696Z,74.63
2024-03-02T05:36:03.026Z,74.38
2024-03-02T05:38:29.636Z,74.16
2024-03-02T05:40:56.192Z,74.78
2024-03-02T05:43:22.741Z,74.84
2024-03-02T05:45:49.394Z,74.96
2024-03-02T05:48:16.001Z,74.76
2024-03-02T05:50:42.607Z,74.78
2024-03-02T05:53:09.316Z,75.03
2024-03-02T05:55:36.678Z,75.34
2024-03-02T05:58:28.894Z,76.15
2024-03-02T06:00:55.936Z,76.57
2024-03-02T06:03:22.557Z,76.81
2024-03-02T06:05:50.455Z,76.87
2024-03-02T06:08:17.149Z,76.71
2024-03-02T06:10:44.618Z,76.92
2024-03-02T06:13:11.186Z,76.71
2024-03-02T06:15:37.885Z,76.60
2024-03-02T06:18:04.822Z,76.94
2024-03-02T06:20:35.212Z,76.30
2024-03-02T06:23:03.259Z,76.05
2024-03-02T06:25:29.861Z,75.80
2024-03-02T06:27:56.509Z,75.92
2024-03-02T06:30:23.289Z,75.91
2024-03-02T06:32:49.965Z,75.54
2024-03-02T06:35:16.627Z,75.57
2024-03-02T06:37:43.454Z,75.59
2024-03-02T06:40:10.810Z,75.26
2024-03-02T06:42:37.527Z,75.18
2024-03-02T06:45:04.777Z,75.32
2024-03-02T06:47:31.670Z,74.84
2024-03-02T06:49:59.649Z,74.60
2024-03-02T06:52:26.349Z,74.54
2024-03-02T06:54:53.040Z,74.32
2024-03-02T06:57:21.011Z,74.50
2024-03-02T06:59:48.356Z,74.58
2024-03-02T07:02:14.936Z,74.63
2024-03-02T07:04:41.558Z,74.71
2024-03-02T07:07:08.180Z,74.51
2024-03-02T07:09:34.879Z,74.69
2024-03-02T07:12:01.641Z,74.70
2024-03-02T07:14:48.124Z,74.92
2024-03-02T07:17:14.670Z,74.92
2024-03-02T07:19:41.286Z,74.81
2024-03-02T07:22:09.271Z,75.44
2024-03-02T07:24:43.080Z,75.22
2024-03-02T07:27:14.054Z,75.57
2024-03-02T07:29:41.225Z,75.52
2024-03-02T07:32:08.215Z,75.24
2024-03-02T07:34:35.136Z,74.77
2024-03-02T07:37:01.980Z,74.98
2024-03-02T07:39:28.796Z,75.23
2024-03-02T07:41:55.405Z,75.07
2024-03-02T07:44:22.169Z,74.73
2024-03-02T07:46:51.167Z,74.92
2024-03-02T07:49:18.355Z,75.67
2024-03-02T07:51:45.029Z,75.25
2024-03-02T07:54:11.839Z,75.82
2024-03-02T07:56:38.623Z,75.72
2024-03-02T07:59:06.045Z,75.77
2024-03-02T08:01:33.467Z,75.92
2024-03-02T08:04:06.631Z,75.86
2024-03-02T08:06:33.382Z,76.28
2024-03-02T08:09:01.659Z,76.50
2024-03-02T08:11:28.627Z,77.20
2024-03-02T08:13:57.861Z,77.18
2024-03-02T08:16:24.744Z,76.98
2024-03-02T08:18:52.205Z,77.83
2024-03-02T08:21:19.314Z,77.64
2024-03-02T08:23:46.128Z,78.18
2024-03-02T08:26:13.005Z,78.37
2024-03-02T08:28:43.308Z,77.99
2024-03-02T08:31:10.285Z,78.28
2024-03-02T08:33:38.678Z,78.78
2024-03-02T08:36:06.349Z,78.27
2024-03-02T08:38:33.560Z,78.41
2024-03-02T08:41:00.069Z,78.24
2024-03-02T08:43:26.710Z,78.39
2024-03-02T08:45:53.459Z,78.20
2024-03-02T08:48:21.652Z,78.13
2024-03-02T08:50:48.279Z,77.71
2024-03-02T08:53:19.246Z,77.67
2024-03-02T08:55:47.409Z,77.73
2024-03-02T08:58:14.267Z,77.76
2024-03-02T09:00:41.854Z,78.46
2024-03-02T09:03:09.099Z,79.21
2024-03-02T09:05:35.732Z,79.32
2024-03-02T09:08:02.481Z,79.81
2024-03-02T09:10:29.128Z,80.13
2024-03-02T09:12:56.071Z,80.37
2024-03-02T09:15:22.753Z,80.52
2024-03-02T09:17:49.440Z,80.41
2024-03-02T09:20:16.070Z,80.63
2024-03-02T09:22:42.744Z,80.72
2024-03-02T09:25:09.941Z,81.07
2024-03-02T09:27:39.913Z,81.56
2024-03-02T09:30:09.333Z,81.33
2024-03-02T09:32:36.029Z,81.03
2024-03-02T09:35:02.680Z,81.07
2024-03-02T09:37:29.983Z,80.74
2024-03-02T09:39:56.720Z,80.82
2024-03-02T09:42:24.922Z,80.76
2024-03-02T09:44:51.847Z,80.66
2024-03-02T09:47:18.511Z,80.59
2024-03-02T09:49:45.112Z,80.54
2024-03-02T09:52:12.086Z,80.73
2024-03-02T09:54:39.546Z,80.29
2024-03-02T09:57:06.213Z,79.58
2024-03-02T09:59:32.803Z,79.61
2024-03-02T10:02:04.174Z,79.27
2024-03-02T10:04:36.911Z,79.11
2024-03-02T10:07:14.741Z,78.37
2024-03-02T10:09:43.979Z,78.31
2024-03-02T10:12:12.913Z,78.41
2024-03-02T10:14:40.143Z,78.21
2024-03-02T10:17:11.606Z,78.57
2024-03-02T10:19:40.272Z,78.31
2024-03-02T10:22:09.621Z,78.53
2024-03-02T10:24:41.598Z,78.63
2024-03-02T10:27:19.136Z,79.53
2024-03-02T10:29:49.263Z,79.30
2024-03-02T10:32:17.176Z,79.94
2024-03-02T10:34:46.681Z,79.59
2024-03-02T10:37:14.076Z,79.46
2024-03-02T10:39:41.889Z,79.50
2024-03-02T10:42:09.438Z,78.76
2024-03-02T10:44:36.785Z,78.67
2024-03-02T10:47:06.183Z,79.18
2024-03-02T10:49:33.913Z,80.04
2024-03-02T10:52:00.940Z,80.04
2024-03-02T10:54:30.420Z,80.23
2024-03-02T10:57:04.508Z,80.25
2024-03-02T10:59:36.226Z,80.15
2024-03-02T11:02:06.098Z,79.54
2024-03-02T11:04:36.701Z,80.19
2024-03-02T11:07:06.315Z,79.81
2024-03-02T11:09:36.868Z,79.41
2024-03-02T11:12:58.213Z,79.73
2024-03-02T11:15:27.260Z,80.23
2024-03-02T11:17:54.609Z,80.52
2024-03-02T11:20:22.083Z,80.06
2024-03-02T11:22:48.971Z,80.56
2024-03-02T11:25:29.043Z,80.44
2024-03-02T11:27:55.657Z,80.51
2024-03-02T11:30:34.721Z,80.53
2024-03-02T11:33:13.085Z,80.44
2024-03-02T11:35:48.588Z,80.59
2024-03-02T11:38:15.283Z,80.84
2024-03-02T11:40:42.258Z,80.52
2024-03-02T11:43:09.852Z,80.96
2024-03-02T11:45:41.358Z,81.21
2024-03-02T11:48:13.868Z,81.19
2024-03-02T11:51:00.869Z,81.82
2024-03-02T11:53:32.212Z,81.27
2024-03-02T11:56:00.197Z,81.00
2024-03-02T11:58:28.655Z,80.38
2024-03-02T12:00:56.789Z,80.38
2024-03-02T12:03:25.115Z,80.22
2024-03-02T12:05:52.415Z,79.71
2024-03-02T12:08:19.224Z,79.68
2024-03-02T12:11:03.262Z,80.29
2024-03-02T12:13:31.000Z,80.00
2024-03-02T12:15:57.924Z,80.40
2024-03-02T12:18:25.066Z,80.95
2024-03-02T12:21:04.200Z,80.97
2024-03-02T12:23:30.849Z,80.19
2024-03-02T12:25:57.771Z,80.39
2024-03-02T12:28:24.476Z,81.05
2024-03-02T12:30:51.314Z,80.68
2024-03-02T12:33:18.075Z,79.97
2024-03-02T12:35:44.932Z,79.43
2024-03-02T12:38:12.288Z,79.40
2024-03-02T12:40:39.239Z,80.00
2024-03-02T12:43:07.218Z,80.77
2024-03-02T12:45:35.445Z,80.44
2024-03-02T12:48:03.412Z,79.12
2024-03-02T12:50:30.107Z,80.15
2024-03-02T12:52:57.100Z,79.92
2024-03-02T12:55:25.214Z,79.44
2024-03-02T12:57:55.832Z,79.88
2024-03-02T13:00:23.911Z,79.94
2024-03-02T13:02:52.824Z,79.84
2024-03-02T13:05:20.706Z,79.43
2024-03-02T13:07:49.266Z,79.20
2024-03-02T13:10:16.507Z,79.33
2024-03-02T13:12:43.462Z,79.38
2024-03-02T13:15:11.882Z,78.39
2024-03-02T13:17:40.722Z,78.40
2024-03-02T13:20:11.662Z,78.83
2024-03-02T13:22:38.790Z,79.55
2024-03-02T13:25:06.608Z,79.75
2024-03-02T13:27:34.086Z,80.14
2024-03-02T13:30:00.844Z,80.01
2024-03-02T13:32:27.649Z,80.01
2024-03-02T13:34:54.317Z,79.94
2024-03-02T13:37:22.393Z,79.96
2024-03-02T13:39:49.086Z,79.63
2024-03-02T13:42:16.517Z,79.58
2024-03-02T13:44:52.140Z,80.29
2024-03-02T13:47:19.024Z,80.85
2024-03-02T13:49:48.107Z,81.23
2024-03-02T13:52:17.193Z,80.77
2024-03-02T13:54:46.054Z,80.76
2024-03-02T13:57:13.374Z,80.36
2024-03-02T13:59:41.331Z,80.71
2024-03-02T14:02:08.676Z,81.06
2024-03-02T14:04:36.134Z,82.08
2024-03-02T14:07:03.241Z,82.21
2024-03-02T14:09:30.240Z,82.56
2024-03-02T14:11:57.516Z,82.59
2024-03-02T14:14:24.551Z,82.63
2024-03-02T14:16:51.482Z,82.82
2024-03-02T14:19:18.180Z,82.28
2024-03-02T14:21:44.805Z,81.65
2024-03-02T14:24:11.511Z,81.59
2024-03-02T14:26:38.411Z,82.22
2024-03-02T14:29:05.663Z,82.43
2024-03-02T14:31:32.631Z,82.78
2024-03-02T14:33:59.852Z,82.38
2024-03-02T14:36:28.876Z,82.57
2024-03-02T14:38:56.965Z,82.54
2024-03-02T14:41:25.648Z,82.33
2024-03-02T14:43:52.802Z,82.49
2024-03-02T14:46:20.381Z,82.49
2024-03-02T14:48:47.774Z,82.54
2024-03-02T14:51:15.285Z,82.49
2024-03-02T14:53:42.600Z,81.47
2024-03-02T14:56:10.174Z,81.62
2024-03-02T14:58:37.965Z,81.54
2024-03-02T15:01:10.016Z,81.41
2024-03-02T15:03:37.341Z,81.43
2024-03-02T15:06:05.553Z,81.83
2024-03-02T15:08:32.287Z,82.29
2024-03-02T15:11:05.440Z,82.10
2024-03-02T15:13:32.130Z,81.98
2024-03-02T15:15:59.444Z,81.86
2024-03-02T15:18:26.284Z,82.36
2024-03-02T15:20:52.951Z,82.64
2024-03-02T15:23:22.856Z,82.36
2024-03-02T15:25:49.486Z,82.51
2024-03-02T15:28:16.105Z,81.89
2024-03-02T15:30:42.908Z,81.57
2024-03-02T15:33:09.559Z,81.44
2024-03-02T15:35:36.263Z,81.23
2024-03-02T15:38:03.053Z,81.03
2024-03-02T15:40:30.362Z,81.17
2024-03-02T15:42:57.003Z,80.83
2024-03-02T15:45:23.658Z,80.74
2024-03-02T15:47:50.339Z,80.77
2024-03-02T15:50:17.119Z,79.95
2024-03-02T15:52:43.802Z,79.91
2024-03-02T15:55:10.515Z,79.64
2024-03-02T15:57:37.414Z,79.43
2024-03-02T16:00:06.304Z,79.60
2024-03-02T16:02:33.332Z,79.64
2024-03-02T16:04:59.863Z,79.73
2024-03-02T16:07:26.391Z,79.27
2024-03-02T16:09:52.944Z,78.48
2024-03-02T16:12:19.651Z,78.94
2024-03-02T16:14:46.243Z,79.07
2024-03-02T16:17:12.835Z,78.76
2024-03-02T16:19:42.123Z,78.42
2024-03-02T16:22:12.226Z,78.29
2024-03-02T16:24:39.141Z,78.52
2024-03-02T16:27:05.832Z,78.29
2024-03-02T16:29:33.293Z,78.13
2024-03-02T16:32:01.219Z,77.84
2024-03-02T16:34:28.371Z,77.75
2024-03-02T16:36:55.341Z,77.48
2024-03-02T16:39:21.948Z,77.18
2024-03-02T16:41:48.524Z,77.00
2024-03-02T16:44:15.292Z,76.75
2024-03-02T16:46:41.977Z,76.72
2024-03-02T16:49:08.642Z,76.40
2024-03-02T16:51:42.096Z,76.44
2024-03-02T16:54:08.796Z,76.33
2024-03-02T16:56:42.545Z,76.33
2024-03-02T16:59:09.550Z,76.50
2024-03-02T17:01:36.634Z,76.31
2024-03-02T17:04:05.388Z,76.12
2024-03-02T17:06:32.398Z,76.21
2024-03-02T17:08:59.020Z,76.00
2024-03-02T17:11:25.813Z,75.73
2024-03-02T17:13:58.744Z,75.90
2024-03-02T17:16:26.239Z,76.58
2024-03-02T17:18:53.425Z,76.63
2024-03-02T17:21:20.717Z,76.91
2024-03-02T17:23:47.319Z,76.86
2024-03-02T17:26:14.174Z,76.87
2024-03-02T17:28:42.425Z,76.85
2024-03-02T17:31:09.182Z,76.94
2024-03-02T17:33:36.152Z,76.33
2024-03-02T17:36:04.971Z,76.68
2024-03-02T17:38:31.785Z,76.44
2024-03-02T17:40:58.663Z,76.28
2024-03-02T17:43:25.553Z,77.52
2024-03-02T17:45:52.213Z,77.65
2024-03-02T17:48:18.898Z,77.53
2024-03-02T17:50:45.532Z,77.49
2024-03-02T17:53:12.224Z,77.91
2024-03-02T17:55:38.857Z,77.82
2024-03-02T17:58:05.517Z,77.79
2024-03-02T18:00:32.361Z,77.50
2024-03-02T18:02:59.003Z,77.52
2024-03-02T18:05:25.596Z,76.88
2024-03-02T18:07:52.319Z,76.91
2024-03-02T18:10:19.194Z,77.00
2024-03-02T18:12:49.292Z,76.53
2024-03-02T18:15:16.066Z,76.00
2024-03-02T18:17:42.867Z,76.21
2024-03-02T18:20:11.729Z,76.33
2024-03-02T18:22:38.291Z,75.88
2024-03-02T18:25:06.203Z,75.95
2024-03-02T18:27:35.067Z,75.89
2024-03-02T18:30:05.811Z,76.04
2024-03-02T18:32:33.931Z,76.19
2024-03-02T18:35:00.845Z,76.66
2024-03-02T18:37:27.582Z,76.63
2024-03-02T18:39:54.928Z,76.41
2024-03-02T18:42:21.563Z,76.40
2024-03-02T18:44:50.292Z,76.68
2024-03-02T18:47:17.132Z,76.04
2024-03-02T18:49:47.351Z,76.73
2024-03-02T18:52:14.701Z,76.73
2024-03-02T18:54:45.227Z,76.67
2024-03-02T18:57:12.035Z,76.64
2024-03-02T18:59:38.766Z,76.66
2024-03-02T19:02:06.042Z,77.09
2024-03-02T19:04:32.977Z,76.82
2024-03-02T19:06:59.857Z,76.78
2024-03-02T19:09:26.538Z,76.84
2024-03-02T19:11:53.107Z,76.81
2024-03-02T19:14:19.973Z,76.65
2024-03-02T19:16:46.674Z,76.61
2024-03-02T19:19:13.424Z,76.40
2024-03-02T19:21:40.128Z,76.39
2024-03-02T19:24:06.919Z,76.40
2024-03-02T19:26:35.085Z,76.29
2024-03-02T19:29:01.848Z,75.94
2024-03-02T19:31:28.462Z,76.06
2024-03-02T19:33:55.111Z,76.12
2024-03-02T19:36:21.851Z,76.21
2024-03-02T19:38:48.389Z,76.08
2024-03-02T19:41:15.177Z,75.94
2024-03-02T19:43:41.981Z,76.24
2024-03-02T19:46:08.590Z,75.88
2024-03-02T19:48:35.331Z,76.05
2024-03-02T19:51:01.905Z,75.97
2024-03-02T19:53:28.567Z,75.98
2024-03-02T19:55:55.639Z,76.19
2024-03-02T19:58:22.449Z,76.52
2024-03-02T20:00:49.172Z,76.21
2024-03-02T20:03:15.853Z,76.57
2024-03-02T20:05:42.479Z,76.43
2024-03-02T20:08:09.146Z,76.66
2024-03-02T20:10:36.252Z,76.11
2024-03-02T20:13:06.015Z,76.42
2024-03-02T20:15:33.163Z,76.59
2024-03-02T20:17:59.807Z,76.54
2024-03-02T20:20:26.541Z,76.65
2024-03-02T20:22:53.154Z,76.49
2024-03-02T20:25:20.132Z,76.65
2024-03-02T20:27:46.902Z,76.69
2024-03-02T20:30:13.906Z,77.01
2024-03-02T20:32:40.658Z,76.57
2024-03-02T20:35:07.790Z,76.89
2024-03-02T20:37:34.396Z,76.97
2024-03-02T20:40:01.631Z,76.91
2024-03-02T20:42:28.508Z,76.81
2024-03-02T20:44:55.185Z,76.99
2024-03-02T20:47:23.777Z,76.84
2024-03-02T20:49:52.182Z,77.01
2024-03-02T20:52:19.389Z,76.84
2024-03-02T20:54:46.598Z,76.94
2024-03-02T20:57:13.283Z,76.84
2024-03-02T20:59:40.501Z,76.83
2024-03-02T21:02:07.684Z,76.91
2024-03-02T21:04:34.465Z,77.14
2024-03-02T21:07:01.284Z,77.02
2024-03-02T21:09:27.995Z,77.35
2024-03-02T21:11:54.767Z,77.02
2024-03-02T21:14:21.368Z,77.33
2024-03-02T21:16:50.736Z,77.26
2024-03-02T21:19:18.018Z,76.84
2024-03-02T21:21:45.221Z,76.44
2024-03-02T21:24:11.801Z,76.39
2024-03-02T21:26:42.406Z,75.76
2024-03-02T21:29:09.678Z,74.86
2024-03-02T21:31:36.409Z,75.05
2024-03-02T21:34:03.141Z,74.63
2024-03-02T21:36:29.808Z,74.75
2024-03-02T21:38:56.397Z,75.17
2024-03-02T21:41:23.747Z,76.17
2024-03-02T21:43:50.334Z,76.55
2024-03-02T21:46:17.480Z,76.75
2024-03-02T21:48:44.257Z,76.91
2024-03-02T21:51:20.226Z,77.64
2024-03-02T21:53:47.104Z,78.12
2024-03-02T21:56:14.146Z,78.65
2024-03-02T21:58:41.084Z,78.09
2024-03-02T22:01:08.198Z,78.49
2024-03-02T22:03:35.057Z,78.56
2024-03-02T22:06:01.665Z,78.45
2024-03-02T22:08:31.118Z,78.25
2024-03-02T22:10:57.735Z,78.37
2024-03-02T22:13:24.409Z,78.42
2024-03-02T22:15:51.086Z,77.71
2024-03-02T22:18:17.666Z,77.62
2024-03-02T22:20:44.253Z,77.94
2024-03-02T22:23:11.053Z,78.61
2024-03-02T22:25:37.774Z,78.37
2024-03-02T22:28:04.586Z,79.08
2024-03-02T22:30:31.221Z,79.21
2024-03-02T22:32:58.461Z,79.34
2024-03-02T22:35:27.897Z,79.70
2024-03-02T22:37:55.056Z,79.98
2024-03-02T22:40:23.925Z,80.10
2024-03-02T22:42:50.577Z,80.16
2024-03-02T22:45:17.161Z,80.17
2024-03-02T22:47:43.817Z,79.79
2024-03-02T22:50:11.273Z,80.03
2024-03-02T22:52:37.870Z,80.19
2024-03-02T22:55:04.904Z,79.32
2024-03-02T22:57:31.575Z,79.07
2024-03-02T22:59:58.214Z,78.73
2024-03-02T23:02:25.130Z,78.27
2024-03-02T23:04:52.602Z,78.24
2024-03-02T23:07:23.120Z,77.79
2024-03-02T23:09:50.193Z,77.84
2024-03-02T23:12:16.929Z,77.91
2024-03-02T23:14:43.528Z,77.70
2024-03-02T23:17:10.325Z,78.17
2024-03-02T23:19:37.257Z,78.34
2024-03-02T23:22:06.295Z,78.54
2024-03-02T23:24:33.990Z,78.54
2024-03-02T23:27:00.710Z,78.71
2024-03-02T23:29:27.468Z,79.73
2024-03-02T23:31:54.012Z,78.79
2024-03-02T23:34:20.616Z,79.47
2024-03-02T23:36:47.361Z,80.04
2024-03-02T23:39:33.920Z,79.59
2024-03-02T23:42:00.617Z,79.63
2024-03-02T23:44:27.134Z,79.88
2024-03-02T23:46:53.673Z,80.47
2024-03-02T23:49:20.269Z,80.65
2024-03-02T23:51:46.884Z,80.52
2024-03-02T23:54:13.481Z,80.78
2024-03-02T23:56:40.013Z,80.82
2024-03-02T23:59:07.085Z,80.91
